Accueil
METAR-TAF:

METAR-TAF

Aéroports :

Hope, Colombie-Britannique, Canada

latitude: 49-22N, longitude: 121-29W, altitude: 39 m

Observation

Le bulletin a été fait il y a 55 minutes, à 05:00 UTC
Vent 15 kt de direction variable avec des rafales jusqu'à 27 kt
Température 8°C
Humidité 87%
Pression 1011 hPa
Visibilité: 9.7 km
Quelques nuages à une hauteur de 2600 ft
Nuages fragmentés à une hauteur de 3600 ft
Ciel couvert à une hauteur de 4500 ft
pluie faible, brume

METAR: CYHE 190500Z AUTO VRB15G27KT 6SM -RA BR FEW026 BKN036 OVC045 08/06 A2986 RMK SLP113

Heure: 21:55 (05:55 UTC)


TAF: absent

Observations et prévisions météorologiques de plus de 4000 aéroports (messages METAR et TAF).

Les stations disponibles sont représentées par des disques jaunes et rouges sur la carte.

Passer la souris dessus pour voir le nom de la station.

Cliquer dessus pour voir les observations et prévisions météorologiques.

Pour changer de carte: cliquez sur les boutons verts avec une croix noire pour zoomer, sur le bouton vert avec un tiret pour effectuer un zoom arrière, ou sur les flèches vertes pour les cartes adjacentes.


METAR-TAF: